createdAt,value
2023-04-02T00:00:40.440Z,5.07
2023-04-02T00:04:39.819Z,5
2023-04-02T00:08:40.482Z,5.03
2023-04-02T00:12:40.421Z,4.8
2023-04-02T00:16:41.228Z,5.33
2023-04-02T00:20:40.462Z,5.33
2023-04-02T00:24:40.622Z,5.43
2023-04-02T00:28:40.448Z,5.17
2023-04-02T00:32:40.615Z,5.67
2023-04-02T00:36:40.642Z,5.73
2023-04-02T00:40:39.468Z,4.7
2023-04-02T00:44:40.555Z,6.4
2023-04-02T00:48:40.776Z,6.2
2023-04-02T00:52:40.466Z,6.07
2023-04-02T00:56:39.330Z,5.7
2023-04-02T01:00:41.104Z,5.1
2023-04-02T01:04:40.521Z,5.9
2023-04-02T01:08:40.511Z,5.9
2023-04-02T01:12:40.624Z,8.6
2023-04-02T01:16:40.297Z,6.83
2023-04-02T01:20:40.604Z,6.93
2023-04-02T01:24:40.258Z,7.07
2023-04-02T01:28:40.795Z,7.33
2023-04-02T01:32:40.583Z,6.53
2023-04-02T01:36:41.231Z,5.83
2023-04-02T01:40:40.626Z,5.2
2023-04-02T01:44:40.870Z,6.33
2023-04-02T01:48:40.508Z,5.9
2023-04-02T01:52:40.831Z,6.17
2023-04-02T01:56:40.523Z,5.8
2023-04-02T02:00:40.465Z,5.4
2023-04-02T02:04:40.388Z,5.43
2023-04-02T02:08:40.413Z,5.97
2023-04-02T02:12:40.540Z,5.67
2023-04-02T02:16:40.258Z,4.57
2023-04-02T02:20:39.545Z,5.17
2023-04-02T02:24:40.840Z,5.27
2023-04-02T02:28:40.399Z,5.37
2023-04-02T02:32:40.452Z,5.8
2023-04-02T02:36:40.526Z,5.57
2023-04-02T02:40:40.894Z,5.53
2023-04-02T02:44:40.426Z,5.43
2023-04-02T02:48:40.598Z,5.33
2023-04-02T02:52:41.133Z,3.43
2023-04-02T02:56:40.415Z,3.6
2023-04-02T03:00:40.433Z,3.5
2023-04-02T03:04:40.618Z,3.07
2023-04-02T03:08:40.396Z,4.57
2023-04-02T03:12:40.520Z,2.57
2023-04-02T03:16:40.579Z,2.57
2023-04-02T03:20:40.528Z,2.17
2023-04-02T03:24:40.390Z,2.83
2023-04-02T03:28:40.380Z,2.9
2023-04-02T03:32:40.399Z,2.87
2023-04-02T03:36:40.526Z,3.73
2023-04-02T03:40:40.610Z,3.2
2023-04-02T03:44:40.698Z,3.27
2023-04-02T03:48:40.483Z,2.17
2023-04-02T03:52:40.649Z,2.23
2023-04-02T03:56:40.431Z,2.5
2023-04-02T04:00:40.489Z,2.33
2023-04-02T04:04:40.424Z,3.1
2023-04-02T04:08:40.533Z,2.13
2023-04-02T04:12:40.402Z,2.77
2023-04-02T04:16:40.639Z,2.57
2023-04-02T04:20:40.726Z,2.23
2023-04-02T04:24:40.382Z,2.53
2023-04-02T04:28:40.771Z,2.43
2023-04-02T04:32:40.571Z,1.87
2023-04-02T04:36:40.460Z,2.5
2023-04-02T04:40:40.570Z,2.7
2023-04-02T04:44:40.429Z,2.7
2023-04-02T04:48:40.582Z,2.1
2023-04-02T04:52:40.599Z,2
2023-04-02T04:56:40.630Z,2.03
2023-04-02T05:00:41.295Z,2.23
2023-04-02T05:04:40.634Z,2.3
2023-04-02T05:08:40.058Z,2.17
2023-04-02T05:12:41.018Z,2.4
2023-04-02T05:16:40.988Z,1.6
2023-04-02T05:20:40.698Z,2.4
2023-04-02T05:24:40.674Z,2.33
2023-04-02T05:28:40.810Z,2
2023-04-02T05:32:40.408Z,1.9
2023-04-02T05:36:40.308Z,2.67
2023-04-02T05:40:40.653Z,2.17
2023-04-02T05:44:39.631Z,2.07
2023-04-02T05:48:40.454Z,2.9
2023-04-02T05:52:40.421Z,1.93
2023-04-02T05:56:39.749Z,2.17
2023-04-02T06:00:40.514Z,1.3
2023-04-02T06:04:40.726Z,1.53
2023-04-02T06:08:40.417Z,1.4
2023-04-02T06:12:40.726Z,1.9
2023-04-02T06:16:40.554Z,1.5
2023-04-02T06:20:40.592Z,1.5
2023-04-02T06:24:40.486Z,1.1
2023-04-02T06:28:40.463Z,1.13
2023-04-02T06:32:41.237Z,1.43
2023-04-02T06:36:40.421Z,0.97
2023-04-02T06:40:40.592Z,1
2023-04-02T06:44:40.488Z,1.33
2023-04-02T06:48:40.620Z,1.2
2023-04-02T06:52:40.584Z,0.7
2023-04-02T06:56:40.596Z,0.83
2023-04-02T07:00:40.855Z,0.97
2023-04-02T07:04:40.551Z,1.4
2023-04-02T07:08:40.464Z,2.3
2023-04-02T07:12:40.502Z,1.53
2023-04-02T07:16:40.322Z,1.4
2023-04-02T07:20:40.494Z,1.37
2023-04-02T07:24:40.391Z,1
2023-04-02T07:28:39.472Z,1.2
2023-04-02T07:32:41.092Z,1.23
2023-04-02T07:36:40.513Z,1.1
2023-04-02T07:40:40.537Z,1.3
2023-04-02T07:44:40.461Z,1
2023-04-02T07:48:40.513Z,1.2
2023-04-02T07:52:40.689Z,1.33
2023-04-02T07:56:39.942Z,1.4
2023-04-02T08:00:41.199Z,1.17
2023-04-02T08:04:40.429Z,0.93
2023-04-02T08:08:40.473Z,0.97
2023-04-02T08:12:40.882Z,1.6
2023-04-02T08:16:40.629Z,1.3
2023-04-02T08:20:40.453Z,1.3
2023-04-02T08:24:40.635Z,1.3
2023-04-02T08:28:40.538Z,1.6
2023-04-02T08:32:40.834Z,0.97
2023-04-02T08:36:40.496Z,1.13
2023-04-02T08:40:40.505Z,1.4
2023-04-02T08:44:40.423Z,1.4
2023-04-02T08:48:42.585Z,1.07
2023-04-02T08:52:41.210Z,1.47
2023-04-02T08:56:40.562Z,1.43
2023-04-02T09:00:40.569Z,1.6
2023-04-02T09:04:40.507Z,0.9
2023-04-02T09:08:40.839Z,0.93
2023-04-02T09:12:42.243Z,1.47
2023-04-02T09:16:39.642Z,1.43
2023-04-02T09:20:40.484Z,1.8
2023-04-02T09:24:40.569Z,0.8
2023-04-02T09:28:40.486Z,1
2023-04-02T09:32:40.856Z,2.15
2023-04-02T09:36:40.546Z,1.4
2023-04-02T09:40:40.457Z,1.47
2023-04-02T09:44:40.450Z,1.93
2023-04-02T09:48:40.553Z,1.43
2023-04-02T09:52:40.719Z,1.37
2023-04-02T09:56:40.146Z,1.3
2023-04-02T10:04:40.361Z,1.33
2023-04-02T10:08:39.284Z,1.9
2023-04-02T10:12:40.549Z,1.1
2023-04-02T10:16:40.761Z,1
2023-04-02T10:20:50.624Z,0.9
2023-04-02T10:24:40.524Z,1.4
2023-04-02T10:28:40.504Z,1.53
2023-04-02T10:32:40.537Z,1.3
2023-04-02T10:36:40.295Z,0.9
2023-04-02T10:40:40.441Z,0.8
2023-04-02T10:44:40.748Z,0.97
2023-04-02T10:48:40.665Z,1.17
2023-04-02T10:52:40.638Z,1.1
2023-04-02T10:56:50.204Z,1.27
2023-04-02T11:00:40.519Z,1.7
2023-04-02T11:04:40.524Z,1.7
2023-04-02T11:08:40.561Z,1.73
2023-04-02T11:12:42.043Z,1.42
2023-04-02T11:16:44.064Z,1.2
2023-04-02T11:20:40.456Z,0.75
2023-04-02T11:24:40.625Z,1.2
2023-04-02T11:28:40.439Z,1.05
2023-04-02T11:32:40.519Z,1.45
2023-04-02T11:36:40.556Z,0.98
2023-04-02T11:40:40.300Z,1
2023-04-02T11:44:40.460Z,1.02
2023-04-02T11:48:40.643Z,1
2023-04-02T11:52:40.716Z,1.02
2023-04-02T11:56:40.558Z,1.03
2023-04-02T12:00:40.864Z,1.3
2023-04-02T12:04:40.754Z,1.1
2023-04-02T12:08:50.877Z,0.77
2023-04-02T12:12:40.539Z,0.9
2023-04-02T12:16:40.293Z,0.8
2023-04-02T12:20:40.522Z,1.6
2023-04-02T12:24:40.533Z,0.7
2023-04-02T12:28:40.851Z,0.93
2023-04-02T12:32:40.645Z,1.02
2023-04-02T12:36:40.654Z,0.52
2023-04-02T12:40:40.521Z,0.6
2023-04-02T12:44:40.625Z,1.1
2023-04-02T12:48:40.525Z,1.02
2023-04-02T12:52:40.418Z,0.9
2023-04-02T12:56:41.207Z,0.75
2023-04-02T13:00:40.709Z,1.2
2023-04-02T13:04:40.670Z,0.9
2023-04-02T13:08:39.666Z,0.88
2023-04-02T13:12:40.100Z,0.8
2023-04-02T13:16:41.221Z,0.82
2023-04-02T13:20:40.811Z,0.9
2023-04-02T13:24:40.450Z,0.77
2023-04-02T13:28:40.045Z,0.85
2023-04-02T13:32:40.684Z,0.6
2023-04-02T13:36:40.455Z,1.15
2023-04-02T13:40:40.868Z,0.95
2023-04-02T13:44:40.586Z,0.93
2023-04-02T13:48:40.586Z,0.95
2023-04-02T13:52:40.666Z,0.93
2023-04-02T13:56:40.404Z,1.3
2023-04-02T14:00:41.226Z,0.9
2023-04-02T14:04:40.617Z,1.12
2023-04-02T14:08:40.511Z,1.25
2023-04-02T14:12:40.478Z,1.1
2023-04-02T14:16:40.859Z,0.9
2023-04-02T14:20:40.523Z,1.2
2023-04-02T14:24:40.496Z,0.88
2023-04-02T14:28:40.394Z,1.05
2023-04-02T14:32:40.603Z,1.15
2023-04-02T14:36:40.255Z,0.98
2023-04-02T14:40:40.685Z,1.2
2023-04-02T14:44:40.733Z,0.9
2023-04-02T14:48:40.756Z,1.4
2023-04-02T14:52:41.187Z,1.35
2023-04-02T14:56:40.614Z,1.33
2023-04-02T15:00:40.808Z,1.42
2023-04-02T15:04:40.823Z,1.4
2023-04-02T15:08:40.500Z,1.7
2023-04-02T15:12:40.325Z,1.08
2023-04-02T15:16:40.588Z,1.85
2023-04-02T15:20:40.530Z,1.67
2023-04-02T15:24:40.797Z,1.1
2023-04-02T15:28:40.417Z,1.35
2023-04-02T15:32:40.508Z,0.98
2023-04-02T15:36:40.617Z,1.15
2023-04-02T15:40:40.519Z,1.6
2023-04-02T15:44:40.567Z,1.48
2023-04-02T15:48:40.486Z,1.25
2023-04-02T15:52:40.459Z,1.25
2023-04-02T15:56:40.530Z,1.08
2023-04-02T16:00:40.604Z,0.9
2023-04-02T16:04:40.514Z,1.08
2023-04-02T16:08:40.444Z,1.05
2023-04-02T16:12:40.535Z,1.12
2023-04-02T16:16:40.712Z,1.17
2023-04-02T16:20:40.477Z,0.9
2023-04-02T16:24:40.887Z,1.17
2023-04-02T16:28:40.441Z,1.08
2023-04-02T16:32:40.727Z,2.2
2023-04-02T16:36:40.934Z,1.33
2023-04-02T16:40:40.472Z,2.2
2023-04-02T16:44:40.723Z,1.27
2023-04-02T16:48:39.983Z,2.05
2023-04-02T16:52:41.142Z,1.25
2023-04-02T16:56:40.555Z,1.87
2023-04-02T17:00:40.689Z,0.95
2023-04-02T17:04:40.341Z,1.77
2023-04-02T17:08:40.703Z,1.4
2023-04-02T17:12:40.462Z,1.65
2023-04-02T17:16:40.423Z,1.2
2023-04-02T17:20:39.301Z,1.12
2023-04-02T17:24:40.504Z,1.98
2023-04-02T17:28:40.495Z,1.5
2023-04-02T17:32:41.054Z,1.65
2023-04-02T17:36:40.062Z,1.27
2023-04-02T17:40:40.933Z,1.75
2023-04-02T17:44:40.449Z,1.4
2023-04-02T17:48:40.661Z,1.3
2023-04-02T17:52:40.415Z,1.42
2023-04-02T17:56:40.704Z,1.27
2023-04-02T18:00:39.650Z,1.03
2023-04-02T18:04:41.120Z,1.37
2023-04-02T18:08:40.877Z,1.1
2023-04-02T18:12:41.258Z,0.9
2023-04-02T18:16:41.039Z,0.75
2023-04-02T18:20:40.540Z,0.82
2023-04-02T18:24:40.507Z,0.82
2023-04-02T18:28:40.398Z,0.62
2023-04-02T18:32:40.392Z,0.9
2023-04-02T18:36:40.612Z,0.9
2023-04-02T18:40:40.539Z,1.33
2023-04-02T18:44:40.099Z,0.85
2023-04-02T18:48:39.286Z,1
2023-04-02T18:52:40.527Z,1.35
2023-04-02T18:56:40.497Z,1.07
2023-04-02T19:00:40.362Z,0.9
2023-04-02T19:04:41.164Z,1.3
2023-04-02T19:08:40.168Z,1.1
2023-04-02T19:12:41.281Z,1.33
2023-04-02T19:16:40.416Z,1
2023-04-02T19:20:40.447Z,1.47
2023-04-02T19:24:40.462Z,1.1
2023-04-02T19:28:40.433Z,1.03
2023-04-02T19:32:40.660Z,1.33
2023-04-02T19:36:41.658Z,1
2023-04-02T19:40:40.397Z,0.87
2023-04-02T19:44:40.533Z,0.9
2023-04-02T19:48:40.597Z,1.07
2023-04-02T19:52:40.632Z,1.5
2023-04-02T19:56:40.494Z,1.43
2023-04-02T20:00:40.851Z,1.1
2023-04-02T20:04:40.660Z,1.13
2023-04-02T20:08:40.500Z,1.03
2023-04-02T20:12:40.619Z,1.1
2023-04-02T20:16:40.581Z,1.33
2023-04-02T20:20:40.551Z,0.9
2023-04-02T20:24:40.450Z,1.4
2023-04-02T20:28:40.452Z,1.23
2023-04-02T20:32:41.014Z,1.3
2023-04-02T20:36:40.448Z,1.13
2023-04-02T20:40:40.621Z,2
2023-04-02T20:44:40.470Z,1.7
2023-04-02T20:48:40.535Z,1.27
2023-04-02T20:52:40.527Z,1.33
2023-04-02T20:56:40.443Z,1.3
2023-04-02T21:00:40.588Z,0.9
2023-04-02T21:04:40.553Z,1
2023-04-02T21:08:40.508Z,1.3
2023-04-02T21:12:40.432Z,0.9
2023-04-02T21:16:40.511Z,1.63
2023-04-02T21:20:40.401Z,1.4
2023-04-02T21:24:40.517Z,1.33
2023-04-02T21:28:40.556Z,0.9
2023-04-02T21:32:40.583Z,1
2023-04-02T21:36:40.262Z,1.37
2023-04-02T21:40:40.408Z,1.2
2023-04-02T21:44:40.463Z,1.2
2023-04-02T21:48:40.675Z,1.3
2023-04-02T21:52:40.469Z,1.27
2023-04-02T21:56:40.576Z,1.53
2023-04-02T22:00:41.096Z,1.6
2023-04-02T22:04:40.706Z,1.87
2023-04-02T22:08:40.535Z,1.43
2023-04-02T22:12:40.644Z,1.2
2023-04-02T22:16:40.552Z,2.23
2023-04-02T22:20:40.557Z,1.23
2023-04-02T22:24:40.578Z,1.3
2023-04-02T22:28:40.533Z,1.4
2023-04-02T22:32:40.518Z,1.43
2023-04-02T22:36:40.588Z,1.43
2023-04-02T22:40:40.979Z,1.3
2023-04-02T22:44:40.540Z,1.87
2023-04-02T22:48:40.535Z,1.63
2023-04-02T22:52:40.436Z,1.33
2023-04-02T22:56:40.491Z,1.53
2023-04-02T23:00:40.488Z,1.53
2023-04-02T23:04:40.328Z,1.33
2023-04-02T23:08:40.432Z,1.27
2023-04-02T23:12:40.485Z,1.73
2023-04-02T23:16:40.288Z,0.87
2023-04-02T23:20:39.857Z,1.1
2023-04-02T23:24:40.653Z,1.77
2023-04-02T23:28:40.663Z,1.37
2023-04-02T23:32:40.438Z,1.47
2023-04-02T23:36:41.223Z,1.6
2023-04-02T23:40:40.828Z,1.7
2023-04-02T23:44:40.468Z,1.57
2023-04-02T23:48:40.420Z,1.6
2023-04-02T23:52:40.412Z,1.43
2023-04-02T23:56:40.240Z,1.53
